createdAt,value
2023-02-28T00:00:38.794Z,76.89
2023-02-28T00:03:05.839Z,76.83
2023-02-28T00:05:32.812Z,77.03
2023-02-28T00:07:59.385Z,77.89
2023-02-28T00:10:29.102Z,77.66
2023-02-28T00:13:00.036Z,77.34
2023-02-28T00:15:26.650Z,77.92
2023-02-28T00:17:53.347Z,78.13
2023-02-28T00:20:19.900Z,78.64
2023-02-28T00:22:49.109Z,78.36
2023-02-28T00:25:19.122Z,78.58
2023-02-28T00:27:45.746Z,78.22
2023-02-28T00:30:15.759Z,78.28
2023-02-28T00:32:42.676Z,78.38
2023-02-28T00:35:10.381Z,78.64
2023-02-28T00:37:37.253Z,78.93
2023-02-28T00:40:07.761Z,79.07
2023-02-28T00:42:35.816Z,78.62
2023-02-28T00:45:05.028Z,78.29
2023-02-28T00:47:32.076Z,77.80
2023-02-28T00:49:58.833Z,78.32
2023-02-28T00:52:25.535Z,78.41
2023-02-28T00:54:52.295Z,78.63
2023-02-28T00:57:18.882Z,79.15
2023-02-28T00:59:45.470Z,78.78
2023-02-28T01:02:11.968Z,78.45
2023-02-28T01:04:38.818Z,79.19
2023-02-28T01:07:05.350Z,78.26
2023-02-28T01:09:32.002Z,78.39
2023-02-28T01:11:58.489Z,78.17
2023-02-28T01:14:24.947Z,78.69
2023-02-28T01:16:52.621Z,78.53
2023-02-28T01:19:19.148Z,78.45
2023-02-28T01:21:45.591Z,78.52
2023-02-28T01:24:12.037Z,78.13
2023-02-28T01:26:38.699Z,78.73
2023-02-28T01:29:05.268Z,78.09
2023-02-28T01:31:32.013Z,78.30
2023-02-28T01:33:58.644Z,78.81
2023-02-28T01:36:26.010Z,78.47
2023-02-28T01:38:53.161Z,78.39
2023-02-28T01:41:25.525Z,78.93
2023-02-28T01:44:28.766Z,78.68
2023-02-28T01:46:55.194Z,78.33
2023-02-28T01:49:21.683Z,78.64
2023-02-28T01:51:51.887Z,78.85
2023-02-28T01:54:25.040Z,79.39
2023-02-28T01:57:08.631Z,78.97
2023-02-28T01:59:47.509Z,79.21
2023-02-28T02:02:15.250Z,78.72
2023-02-28T02:05:03.660Z,79.10
2023-02-28T02:07:37.066Z,79.06
2023-02-28T02:10:08.246Z,78.90
2023-02-28T02:13:14.932Z,78.44
2023-02-28T02:15:54.534Z,79.28
2023-02-28T02:18:29.149Z,79.23
2023-02-28T02:21:08.892Z,79.34
2023-02-28T02:24:12.689Z,79.14
2023-02-28T02:26:52.624Z,79.55
2023-02-28T02:29:49.515Z,79.32
2023-02-28T02:32:26.483Z,79.78
2023-02-28T02:35:00.156Z,79.51
2023-02-28T02:37:58.156Z,79.46
2023-02-28T02:40:32.479Z,79.31
2023-02-28T02:43:07.867Z,79.22
2023-02-28T02:45:50.380Z,79.76
2023-02-28T02:48:22.325Z,79.05
2023-02-28T02:50:56.590Z,79.13
2023-02-28T02:53:30.768Z,78.51
2023-02-28T02:56:00.587Z,78.29
2023-02-28T02:58:32.764Z,78.30
2023-02-28T03:01:02.647Z,77.72
2023-02-28T03:03:32.022Z,78.17
2023-02-28T03:06:01.036Z,78.92
2023-02-28T03:08:30.439Z,78.78
2023-02-28T03:11:00.090Z,79.18
2023-02-28T03:13:54.340Z,78.84
2023-02-28T03:16:39.662Z,78.88
2023-02-28T03:19:34.802Z,78.84
2023-02-28T03:22:06.908Z,78.95
2023-02-28T03:24:52.131Z,79.20
2023-02-28T03:27:28.392Z,79.03
2023-02-28T03:29:59.766Z,79.39
2023-02-28T03:32:46.689Z,80.18
2023-02-28T03:35:22.863Z,80.41
2023-02-28T03:37:55.203Z,79.64
2023-02-28T03:40:26.464Z,79.11
2023-02-28T03:42:59.760Z,79.59
2023-02-28T03:45:30.863Z,80.04
2023-02-28T03:48:20.511Z,79.80
2023-02-28T03:50:49.944Z,79.47
2023-02-28T03:53:29.155Z,80.25
2023-02-28T03:56:01.533Z,79.95
2023-02-28T03:58:42.883Z,79.18
2023-02-28T04:01:33.786Z,78.92
2023-02-28T04:04:00.388Z,78.30
2023-02-28T04:06:27.234Z,78.15
2023-02-28T04:08:54.251Z,76.67
2023-02-28T04:11:35.798Z,76.02
2023-02-28T04:14:04.135Z,75.72
2023-02-28T04:16:35.865Z,74.89
2023-02-28T04:19:05.876Z,75.25
2023-02-28T04:21:37.878Z,75.31
2023-02-28T04:24:04.861Z,74.59
2023-02-28T04:26:37.003Z,74.58
2023-02-28T04:29:05.790Z,74.25
2023-02-28T04:31:33.307Z,74.21
2023-02-28T04:34:00.510Z,74.92
2023-02-28T04:36:28.027Z,75.19
2023-02-28T04:38:54.837Z,75.26
2023-02-28T04:41:22.404Z,74.96
2023-02-28T04:43:49.018Z,74.92
2023-02-28T04:46:16.336Z,74.80
2023-02-28T04:48:43.036Z,74.89
2023-02-28T04:51:15.074Z,75.53
2023-02-28T04:53:42.831Z,75.22
2023-02-28T04:56:13.082Z,75.38
2023-02-28T04:58:40.656Z,76.09
2023-02-28T05:01:30.721Z,75.69
2023-02-28T05:03:59.447Z,75.33
2023-02-28T05:06:28.454Z,75.72
2023-02-28T05:08:54.934Z,76.05
2023-02-28T05:11:25.732Z,76.51
2023-02-28T05:13:53.747Z,76.46
2023-02-28T05:16:20.789Z,76.15
2023-02-28T05:18:47.806Z,76.56
2023-02-28T05:21:26.473Z,76.32
2023-02-28T05:23:54.021Z,76.60
2023-02-28T05:26:20.998Z,76.53
2023-02-28T05:28:47.542Z,76.30
2023-02-28T05:31:14.689Z,76.22
2023-02-28T05:33:41.203Z,76.40
2023-02-28T05:36:08.264Z,75.74
2023-02-28T05:38:35.186Z,76.09
2023-02-28T05:41:07.154Z,75.89
2023-02-28T05:43:34.350Z,76.60
2023-02-28T05:46:03.781Z,75.79
2023-02-28T05:48:30.333Z,76.26
2023-02-28T05:50:58.533Z,76.74
2023-02-28T05:53:25.169Z,76.46
2023-02-28T05:55:51.638Z,77.59
2023-02-28T05:58:18.118Z,77.75
2023-02-28T06:00:44.567Z,77.11
2023-02-28T06:03:11.102Z,78.10
2023-02-28T06:05:37.642Z,77.21
2023-02-28T06:08:04.253Z,77.85
2023-02-28T06:10:30.701Z,77.14
2023-02-28T06:13:01.476Z,77.14
2023-02-28T06:15:28.050Z,77.50
2023-02-28T06:17:54.486Z,76.93
2023-02-28T06:20:20.921Z,77.45
2023-02-28T06:22:47.371Z,77.02
2023-02-28T06:25:14.002Z,77.58
2023-02-28T06:27:40.523Z,77.91
2023-02-28T06:30:07.819Z,77.89
2023-02-28T06:32:34.276Z,77.87
2023-02-28T06:35:00.765Z,77.41
2023-02-28T06:37:27.243Z,78.40
2023-02-28T06:39:56.825Z,77.88
2023-02-28T06:42:29.698Z,77.20
2023-02-28T06:44:57.086Z,77.94
2023-02-28T06:47:23.685Z,77.85
2023-02-28T06:49:50.317Z,78.29
2023-02-28T06:52:17.266Z,78.26
2023-02-28T06:54:43.825Z,78.08
2023-02-28T06:57:10.259Z,77.92
2023-02-28T06:59:37.504Z,78.01
2023-02-28T07:02:04.054Z,78.97
2023-02-28T07:04:30.730Z,78.78
2023-02-28T07:06:57.979Z,79.02
2023-02-28T07:09:24.811Z,79.35
2023-02-28T07:11:51.316Z,79.17
2023-02-28T07:14:17.839Z,78.91
2023-02-28T07:16:46.466Z,79.13
2023-02-28T07:19:12.934Z,78.50
2023-02-28T07:21:39.372Z,79.22
2023-02-28T07:24:06.168Z,79.39
2023-02-28T07:26:35.181Z,79.04
2023-02-28T07:29:01.993Z,79.49
2023-02-28T07:31:29.100Z,79.50
2023-02-28T07:33:57.311Z,79.41
2023-02-28T07:36:23.742Z,79.06
2023-02-28T07:38:51.155Z,78.94
2023-02-28T07:41:20.466Z,78.77
2023-02-28T07:43:47.069Z,78.36
2023-02-28T07:46:18.953Z,78.67
2023-02-28T07:48:45.929Z,79.06
2023-02-28T07:51:12.483Z,78.50
2023-02-28T07:53:39.019Z,78.24
2023-02-28T07:56:06.096Z,77.90
2023-02-28T07:58:32.811Z,77.40
2023-02-28T08:01:09.341Z,77.29
2023-02-28T08:03:36.810Z,76.69
2023-02-28T08:06:08.232Z,76.68
2023-02-28T08:08:35.204Z,75.35
2023-02-28T08:11:03.330Z,73.72
2023-02-28T08:13:30.777Z,74.51
2023-02-28T08:15:57.725Z,74.33
2023-02-28T08:18:24.676Z,73.71
2023-02-28T08:20:51.146Z,71.63
2023-02-28T08:23:17.590Z,71.18
2023-02-28T08:25:44.028Z,70.83
2023-02-28T08:28:10.532Z,70.06
2023-02-28T08:30:37.216Z,70.33
2023-02-28T08:33:03.815Z,70.31
2023-02-28T08:35:30.257Z,69.04
2023-02-28T08:37:56.754Z,69.55
2023-02-28T08:40:23.520Z,68.32
2023-02-28T08:42:50.536Z,67.63
2023-02-28T08:45:17.135Z,67.46
2023-02-28T08:47:43.612Z,66.60
2023-02-28T08:50:10.528Z,65.26
2023-02-28T08:52:37.006Z,64.65
2023-02-28T08:55:03.562Z,63.53
2023-02-28T08:57:30.073Z,62.93
2023-02-28T08:59:56.540Z,62.06
2023-02-28T09:02:23.186Z,60.40
2023-02-28T09:04:49.729Z,58.08
2023-02-28T09:07:16.277Z,54.68
2023-02-28T09:09:54.675Z,51.96
2023-02-28T09:12:32.706Z,52.84
2023-02-28T09:14:59.182Z,50.85
2023-02-28T09:17:30.842Z,51.51
2023-02-28T09:19:58.040Z,51.90
2023-02-28T09:22:24.667Z,51.88
2023-02-28T09:24:51.282Z,50.72
2023-02-28T09:27:17.720Z,50.12
2023-02-28T09:29:44.453Z,49.29
2023-02-28T09:32:11.084Z,50.17
2023-02-28T09:34:38.611Z,49.59
2023-02-28T09:37:05.280Z,49.57
2023-02-28T09:39:32.624Z,50.92
2023-02-28T09:41:59.508Z,50.83
2023-02-28T09:44:32.644Z,50.71
2023-02-28T09:47:06.340Z,49.05
2023-02-28T09:49:39.932Z,47.13
2023-02-28T09:52:17.746Z,46.63
2023-02-28T09:54:44.296Z,46.73
2023-02-28T09:57:34.696Z,46.28
2023-02-28T10:00:18.275Z,45.80
2023-02-28T10:02:53.679Z,45.27
2023-02-28T10:05:24.205Z,45.90
2023-02-28T10:08:02.612Z,44.42
2023-02-28T10:10:36.483Z,44.44
2023-02-28T10:13:08.074Z,43.72
2023-02-28T10:15:36.384Z,43.23
2023-02-28T10:18:09.254Z,42.21
2023-02-28T10:20:41.043Z,43.94
2023-02-28T10:23:28.689Z,43.38
2023-02-28T10:26:00.360Z,43.74
2023-02-28T10:28:29.697Z,43.81
2023-02-28T10:30:56.763Z,43.59
2023-02-28T10:33:26.251Z,43.92
2023-02-28T10:35:53.322Z,43.96
2023-02-28T10:38:25.126Z,42.61
2023-02-28T10:40:52.307Z,43.59
2023-02-28T10:43:23.785Z,43.79
2023-02-28T10:46:00.376Z,44.46
2023-02-28T10:48:50.874Z,43.53
2023-02-28T10:51:20.160Z,43.17
2023-02-28T10:54:00.768Z,43.40
2023-02-28T10:56:29.080Z,40.44
2023-02-28T10:59:00.398Z,42.53
2023-02-28T11:01:33.468Z,42.87
2023-02-28T11:04:00.412Z,42.38
2023-02-28T11:06:31.648Z,42.18
2023-02-28T11:09:03.801Z,42.43
2023-02-28T11:11:41.708Z,43.04
2023-02-28T11:14:22.499Z,43.03
2023-02-28T11:16:50.426Z,43.34
2023-02-28T11:19:25.249Z,43.08
2023-02-28T11:22:04.022Z,42.00
2023-02-28T11:24:38.687Z,42.29
2023-02-28T11:27:05.289Z,42.55
2023-02-28T11:29:33.929Z,42.64
2023-02-28T11:32:12.471Z,42.43
2023-02-28T11:34:40.387Z,42.29
2023-02-28T11:37:13.064Z,42.11
2023-02-28T11:39:39.670Z,41.22
2023-02-28T11:42:11.914Z,41.33
2023-02-28T11:44:57.418Z,41.96
2023-02-28T11:47:39.165Z,41.98
2023-02-28T11:50:05.683Z,42.10
2023-02-28T11:52:41.884Z,42.23
2023-02-28T11:55:17.371Z,41.42
2023-02-28T11:57:59.132Z,42.09
2023-02-28T12:00:34.724Z,40.23
2023-02-28T12:03:12.326Z,41.14
2023-02-28T12:05:47.846Z,40.94
2023-02-28T12:08:26.481Z,40.46
2023-02-28T12:10:52.870Z,40.45
2023-02-28T12:13:28.495Z,41.93
2023-02-28T12:15:57.762Z,40.63
2023-02-28T12:18:32.972Z,40.22
2023-02-28T12:21:11.616Z,40.11
2023-02-28T12:23:57.600Z,40.80
2023-02-28T12:26:39.386Z,39.79
2023-02-28T12:29:25.243Z,39.56
2023-02-28T12:32:21.228Z,40.04
2023-02-28T12:34:54.496Z,39.17
2023-02-28T12:37:28.826Z,39.22
2023-02-28T12:40:07.052Z,39.18
2023-02-28T12:42:39.543Z,40.18
2023-02-28T12:45:14.492Z,39.71
2023-02-28T12:47:45.573Z,39.13
2023-02-28T12:50:12.916Z,38.92
2023-02-28T12:53:01.369Z,38.31
2023-02-28T12:55:37.061Z,37.82
2023-02-28T12:58:17.189Z,39.10
2023-02-28T13:00:57.398Z,38.80
2023-02-28T13:03:43.926Z,38.76
2023-02-28T13:06:42.614Z,38.24
2023-02-28T13:09:16.768Z,38.74
2023-02-28T13:11:49.534Z,38.29
2023-02-28T13:14:36.752Z,38.34
2023-02-28T13:17:17.976Z,37.97
2023-02-28T13:19:53.825Z,37.87
2023-02-28T13:22:36.692Z,36.87
2023-02-28T13:25:03.478Z,37.50
2023-02-28T13:27:36.274Z,37.15
2023-02-28T13:30:41.270Z,37.88
2023-02-28T13:33:31.131Z,35.27
2023-02-28T13:36:20.780Z,37.32
2023-02-28T13:39:01.412Z,35.58
2023-02-28T13:41:36.809Z,36.38
2023-02-28T13:44:14.469Z,36.62
2023-02-28T13:46:50.139Z,36.48
2023-02-28T13:49:33.152Z,35.38
2023-02-28T13:52:09.643Z,33.95
2023-02-28T13:55:12.795Z,35.29
2023-02-28T13:58:08.642Z,35.00
2023-02-28T14:01:06.013Z,34.20
2023-02-28T14:03:59.714Z,34.21
2023-02-28T14:06:31.300Z,34.09
2023-02-28T14:09:04.275Z,33.93
2023-02-28T14:11:34.650Z,34.06
2023-02-28T14:14:02.960Z,33.98
2023-02-28T14:16:46.450Z,32.60
2023-02-28T14:19:23.812Z,31.32
2023-02-28T14:22:43.509Z,31.90
2023-02-28T14:25:18.719Z,29.78
2023-02-28T14:28:03.062Z,29.92
2023-02-28T14:30:58.537Z,30.79
2023-02-28T14:33:31.131Z,30.43
2023-02-28T14:36:00.558Z,30.18
2023-02-28T14:38:31.674Z,28.04
2023-02-28T14:41:01.568Z,28.79
2023-02-28T14:43:30.002Z,28.40
2023-02-28T14:46:05.536Z,27.55
2023-02-28T14:48:32.314Z,27.80
2023-02-28T14:51:01.573Z,26.70
2023-02-28T14:53:37.421Z,27.29
2023-02-28T14:56:04.629Z,27.65
2023-02-28T14:58:33.601Z,25.52
2023-02-28T15:01:03.676Z,27.80
2023-02-28T15:03:40.564Z,28.69
2023-02-28T15:06:15.167Z,28.65
2023-02-28T15:08:42.189Z,29.30
2023-02-28T15:11:23.235Z,29.54
2023-02-28T15:13:52.167Z,29.68
2023-02-28T15:16:23.093Z,30.50
2023-02-28T15:19:01.929Z,30.20
2023-02-28T15:21:39.987Z,30.35
2023-02-28T15:24:33.751Z,31.00
2023-02-28T15:27:05.341Z,32.11
2023-02-28T15:29:43.882Z,32.01
2023-02-28T15:32:25.183Z,32.36
2023-02-28T15:34:51.897Z,31.34
2023-02-28T15:37:38.398Z,30.31
2023-02-28T15:40:13.973Z,28.08
2023-02-28T15:42:40.771Z,27.98
2023-02-28T15:45:28.184Z,28.69
2023-02-28T15:47:57.929Z,28.15
2023-02-28T15:50:30.487Z,27.47
2023-02-28T15:52:58.012Z,28.61
2023-02-28T15:55:28.803Z,28.24
2023-02-28T15:58:01.118Z,29.93
2023-02-28T16:00:30.692Z,30.62
2023-02-28T16:02:57.366Z,31.48
2023-02-28T16:05:31.560Z,31.36
2023-02-28T16:08:16.123Z,31.79
2023-02-28T16:10:42.751Z,31.64
2023-02-28T16:13:13.499Z,31.44
2023-02-28T16:15:44.167Z,30.96
2023-02-28T16:18:13.166Z,31.02
2023-02-28T16:20:40.247Z,30.79
2023-02-28T16:23:06.746Z,28.50
2023-02-28T16:25:41.862Z,29.05
2023-02-28T16:28:20.366Z,29.16
2023-02-28T16:30:47.514Z,28.57
2023-02-28T16:33:13.987Z,28.30
2023-02-28T16:35:40.698Z,28.46
2023-02-28T16:38:07.111Z,27.74
2023-02-28T16:40:36.660Z,28.03
2023-02-28T16:43:11.013Z,28.56
2023-02-28T16:45:37.597Z,28.87
2023-02-28T16:48:04.180Z,27.69
2023-02-28T16:50:33.544Z,27.38
2023-02-28T16:53:00.168Z,27.42
2023-02-28T16:55:27.961Z,28.87
2023-02-28T16:57:59.971Z,29.28
2023-02-28T17:00:28.699Z,30.18
2023-02-28T17:02:56.700Z,31.49
2023-02-28T17:05:24.144Z,32.81
2023-02-28T17:07:50.926Z,32.64
2023-02-28T17:10:23.687Z,32.97
2023-02-28T17:12:50.655Z,33.41
2023-02-28T17:15:19.780Z,34.27
2023-02-28T17:17:47.643Z,34.88
2023-02-28T17:20:23.628Z,35.27
2023-02-28T17:22:51.411Z,35.42
2023-02-28T17:25:18.102Z,36.22
2023-02-28T17:27:44.734Z,37.14
2023-02-28T17:30:19.890Z,37.11
2023-02-28T17:32:47.652Z,37.94
2023-02-28T17:35:14.707Z,38.06
2023-02-28T17:37:41.355Z,38.69
2023-02-28T17:40:13.648Z,39.20
2023-02-28T17:42:40.096Z,39.05
2023-02-28T17:45:07.113Z,39.35
2023-02-28T17:47:33.556Z,39.38
2023-02-28T17:50:00.039Z,39.42
2023-02-28T17:52:26.552Z,39.29
2023-02-28T17:54:52.983Z,39.86
2023-02-28T17:57:21.248Z,40.16
2023-02-28T17:59:47.733Z,41.00
2023-02-28T18:02:14.716Z,42.02
2023-02-28T18:04:41.154Z,41.95
2023-02-28T18:07:11.598Z,42.42
2023-02-28T18:09:38.078Z,42.56
2023-02-28T18:12:04.830Z,43.08
2023-02-28T18:14:31.362Z,43.27
2023-02-28T18:16:58.235Z,43.33
2023-02-28T18:19:24.812Z,43.48
2023-02-28T18:21:53.437Z,44.18
2023-02-28T18:24:22.728Z,44.23
2023-02-28T18:26:49.251Z,44.65
2023-02-28T18:29:22.184Z,44.82
2023-02-28T18:31:49.300Z,45.03
2023-02-28T18:34:16.614Z,45.18
2023-02-28T18:36:43.348Z,45.71
2023-02-28T18:39:12.108Z,45.49
2023-02-28T18:41:39.493Z,45.32
2023-02-28T18:44:17.726Z,45.50
2023-02-28T18:46:46.356Z,45.63
2023-02-28T18:49:13.068Z,46.01
2023-02-28T18:51:39.570Z,46.46
2023-02-28T18:54:06.211Z,46.61
2023-02-28T18:56:32.846Z,46.98
2023-02-28T18:58:59.388Z,47.84
2023-02-28T19:01:30.086Z,47.96
2023-02-28T19:03:58.902Z,48.82
2023-02-28T19:06:25.543Z,48.41
2023-02-28T19:08:56.020Z,49.60
2023-02-28T19:11:23.338Z,49.01
2023-02-28T19:13:50.169Z,49.21
2023-02-28T19:16:19.016Z,49.02
2023-02-28T19:18:45.714Z,49.29
2023-02-28T19:21:14.998Z,49.80
2023-02-28T19:23:42.225Z,49.45
2023-02-28T19:26:15.623Z,50.46
2023-02-28T19:28:42.579Z,50.87
2023-02-28T19:31:17.650Z,50.27
2023-02-28T19:33:44.197Z,51.30
2023-02-28T19:36:12.564Z,51.84
2023-02-28T19:38:39.779Z,52.17
2023-02-28T19:41:09.294Z,51.70
2023-02-28T19:43:36.017Z,52.43
2023-02-28T19:46:03.282Z,52.51
2023-02-28T19:48:30.042Z,53.07
2023-02-28T19:51:02.031Z,52.61
2023-02-28T19:53:33.361Z,52.37
2023-02-28T19:56:04.306Z,52.63
2023-02-28T19:58:31.078Z,52.41
2023-02-28T20:00:57.659Z,52.77
2023-02-28T20:03:24.332Z,53.85
2023-02-28T20:06:04.878Z,53.48
2023-02-28T20:08:31.371Z,52.88
2023-02-28T20:11:06.595Z,52.87
2023-02-28T20:13:34.021Z,53.56
2023-02-28T20:16:06.293Z,52.90
2023-02-28T20:18:34.135Z,53.68
2023-02-28T20:21:01.944Z,53.88
2023-02-28T20:23:28.481Z,54.68
2023-02-28T20:25:59.584Z,54.88
2023-02-28T20:28:26.055Z,55.03
2023-02-28T20:30:52.608Z,55.20
2023-02-28T20:33:19.812Z,55.96
2023-02-28T20:35:46.370Z,56.53
2023-02-28T20:38:12.891Z,57.45
2023-02-28T20:40:39.541Z,57.57
2023-02-28T20:43:06.580Z,56.60
2023-02-28T20:45:33.040Z,56.81
2023-02-28T20:47:59.523Z,57.25
2023-02-28T20:50:26.095Z,56.92
2023-02-28T20:52:52.970Z,57.31
2023-02-28T20:55:19.486Z,57.41
2023-02-28T20:57:46.038Z,57.74
2023-02-28T21:00:16.249Z,57.91
2023-02-28T21:02:42.717Z,57.31
2023-02-28T21:05:09.732Z,57.40
2023-02-28T21:07:36.254Z,58.21
2023-02-28T21:10:03.000Z,58.05
2023-02-28T21:12:29.527Z,58.05
2023-02-28T21:14:55.955Z,58.04
2023-02-28T21:17:22.435Z,58.69
2023-02-28T21:19:48.856Z,58.84
2023-02-28T21:22:15.866Z,59.20
2023-02-28T21:24:43.921Z,58.84
2023-02-28T21:27:10.531Z,59.13
2023-02-28T21:29:37.044Z,59.01
2023-02-28T21:32:03.536Z,59.35
2023-02-28T21:34:30.137Z,59.68
2023-02-28T21:36:56.943Z,59.88
2023-02-28T21:39:26.922Z,59.83
2023-02-28T21:41:53.908Z,60.25
2023-02-28T21:44:22.614Z,60.44
2023-02-28T21:46:52.452Z,60.32
2023-02-28T21:49:19.106Z,60.10
2023-02-28T21:51:45.644Z,60.53
2023-02-28T21:54:12.383Z,61.07
2023-02-28T21:56:38.972Z,60.99
2023-02-28T21:59:07.146Z,61.00
2023-02-28T22:01:41.654Z,61.05
2023-02-28T22:04:10.306Z,61.53
2023-02-28T22:06:39.921Z,61.18
2023-02-28T22:09:10.297Z,61.34
2023-02-28T22:11:38.118Z,61.48
2023-02-28T22:14:06.666Z,61.56
2023-02-28T22:16:50.057Z,61.87
2023-02-28T22:19:18.631Z,61.79
2023-02-28T22:21:45.700Z,62.01
2023-02-28T22:24:12.317Z,61.92
2023-02-28T22:26:38.762Z,61.74
2023-02-28T22:29:05.267Z,61.94
2023-02-28T22:31:34.384Z,62.09
2023-02-28T22:34:07.596Z,62.24
2023-02-28T22:36:34.773Z,62.33
2023-02-28T22:39:02.254Z,62.28
2023-02-28T22:41:29.835Z,62.32
2023-02-28T22:44:00.147Z,62.47
2023-02-28T22:46:29.616Z,62.94
2023-02-28T22:48:58.599Z,63.02
2023-02-28T22:51:25.830Z,63.02
2023-02-28T22:53:54.165Z,63.24
2023-02-28T22:56:22.885Z,62.82
2023-02-28T22:58:55.131Z,62.71
2023-02-28T23:01:24.243Z,62.58
2023-02-28T23:03:51.643Z,62.81
2023-02-28T23:06:20.404Z,62.73
2023-02-28T23:08:47.216Z,63.27
2023-02-28T23:11:23.237Z,63.83
2023-02-28T23:13:59.259Z,63.63
2023-02-28T23:16:35.217Z,64.15
2023-02-28T23:19:04.894Z,64.08
2023-02-28T23:21:31.508Z,64.31
2023-02-28T23:24:00.695Z,64.35
2023-02-28T23:26:27.220Z,64.32
2023-02-28T23:28:53.711Z,64.35
2023-02-28T23:31:20.956Z,64.73
2023-02-28T23:33:47.435Z,64.78
2023-02-28T23:36:15.720Z,64.62
2023-02-28T23:38:45.542Z,64.76
2023-02-28T23:41:13.866Z,64.81
2023-02-28T23:43:40.711Z,65.00
2023-02-28T23:46:08.245Z,64.92
2023-02-28T23:48:34.808Z,65.17
2023-02-28T23:51:10.088Z,65.39
2023-02-28T23:53:39.135Z,65.23
2023-02-28T23:56:08.064Z,65.25
2023-02-28T23:58:34.701Z,65.13
